createdAt,value
2023-02-15T00:01:19.762Z,52.50
2023-02-15T00:04:22.280Z,56.23
2023-02-15T00:07:23.919Z,55.83
2023-02-15T00:10:25.484Z,58.73
2023-02-15T00:13:27.146Z,65.83
2023-02-15T00:16:28.767Z,61.80
2023-02-15T00:19:30.412Z,62.77
2023-02-15T00:22:32.052Z,64.43
2023-02-15T00:25:33.660Z,60.87
2023-02-15T00:28:35.279Z,65.13
2023-02-15T00:31:37.056Z,62.27
2023-02-15T00:34:38.714Z,66.90
2023-02-15T00:37:40.346Z,52.30
2023-02-15T00:40:41.902Z,49.47
2023-02-15T00:43:43.544Z,51.60
2023-02-15T00:46:45.167Z,41.97
2023-02-15T00:49:47.412Z,41.70
2023-02-15T00:52:49.106Z,42.23
2023-02-15T00:55:50.700Z,48.90
2023-02-15T00:58:52.435Z,53.00
2023-02-15T01:01:53.983Z,66.73
2023-02-15T01:04:55.647Z,46.47
2023-02-15T01:07:58.047Z,40.80
2023-02-15T01:11:03.929Z,44.23
2023-02-15T01:14:06.465Z,43.03
2023-02-15T01:17:08.145Z,41.13
2023-02-15T01:20:10.974Z,46.63
2023-02-15T01:23:12.553Z,44.13
2023-02-15T01:26:14.321Z,39.47
2023-02-15T01:29:18.429Z,41.67
2023-02-15T01:32:20.021Z,43.90
2023-02-15T01:35:22.289Z,45.97
2023-02-15T01:38:23.939Z,42.90
2023-02-15T01:41:25.655Z,46.53
2023-02-15T01:44:44.003Z,43.13
2023-02-15T01:47:48.869Z,43.13
2023-02-15T01:50:55.716Z,45.77
2023-02-15T01:54:00.764Z,45.07
2023-02-15T01:57:06.955Z,45.10
2023-02-15T02:00:09.503Z,40.87
2023-02-15T02:03:17.216Z,40.93
2023-02-15T02:06:19.059Z,44.13
2023-02-15T02:09:20.698Z,44.50
2023-02-15T02:12:23.304Z,43.10
2023-02-15T02:15:31.402Z,43.93
2023-02-15T02:18:45.031Z,43.83
2023-02-15T02:22:04.972Z,46.23
2023-02-15T02:25:25.004Z,43.47
2023-02-15T02:28:35.737Z,47.13
2023-02-15T02:31:40.524Z,44.27
2023-02-15T02:34:42.483Z,48.00
2023-02-15T02:37:52.839Z,49.43
2023-02-15T02:40:54.398Z,55.50
2023-02-15T02:44:00.107Z,56.83
2023-02-15T02:47:01.716Z,53.30
2023-02-15T02:50:06.200Z,57.73
2023-02-15T02:53:08.511Z,54.80
2023-02-15T02:56:22.373Z,55.37
2023-02-15T02:59:26.926Z,54.03
2023-02-15T03:02:32.053Z,56.13
2023-02-15T03:05:34.982Z,58.23
2023-02-15T03:08:39.048Z,57.80
2023-02-15T03:11:41.952Z,54.37
2023-02-15T03:14:45.266Z,58.33
2023-02-15T03:17:49.721Z,57.97
2023-02-15T03:20:51.769Z,62.40
2023-02-15T03:23:55.000Z,57.60
2023-02-15T03:26:56.966Z,58.57
2023-02-15T03:30:00.219Z,52.27
2023-02-15T03:33:03.559Z,56.90
2023-02-15T03:36:31.615Z,59.40
2023-02-15T03:39:36.281Z,57.00
2023-02-15T03:42:40.343Z,60.13
2023-02-15T03:45:55.609Z,62.50
2023-02-15T03:49:12.183Z,61.40
2023-02-15T03:52:15.544Z,57.37
2023-02-15T03:55:17.239Z,67.00
2023-02-15T03:58:37.326Z,67.17
2023-02-15T04:02:00.458Z,69.67
2023-02-15T04:05:02.035Z,73.67
2023-02-15T04:08:03.761Z,79.27
2023-02-15T04:11:05.519Z,73.03
2023-02-15T04:14:27.087Z,75.87
2023-02-15T04:17:28.735Z,90.60
2023-02-15T04:20:49.192Z,89.00
2023-02-15T04:24:09.444Z,78.70
2023-02-15T04:27:11.058Z,85.40
2023-02-15T04:30:13.310Z,88.47
2023-02-15T04:33:14.861Z,87.60
2023-02-15T04:36:16.638Z,86.93
2023-02-15T04:39:19.379Z,87.73
2023-02-15T04:42:20.982Z,85.13
2023-02-15T04:45:22.590Z,88.73
2023-02-15T04:48:24.197Z,90.20
2023-02-15T04:51:25.784Z,83.07
2023-02-15T04:54:27.493Z,84.07
2023-02-15T04:57:29.067Z,77.87
2023-02-15T05:00:30.665Z,80.23
2023-02-15T05:03:32.364Z,85.67
2023-02-15T05:06:33.959Z,88.53
2023-02-15T05:09:35.586Z,77.33
2023-02-15T05:12:37.296Z,85.73
2023-02-15T05:15:38.891Z,79.83
2023-02-15T05:18:40.548Z,86.00
2023-02-15T05:21:42.181Z,83.20
2023-02-15T05:25:02.489Z,82.63
2023-02-15T05:28:22.379Z,87.77
2023-02-15T05:31:24.112Z,90.67
2023-02-15T05:34:25.837Z,100.73
2023-02-15T05:37:27.418Z,89.87
2023-02-15T05:40:29.110Z,111.40
2023-02-15T05:43:30.719Z,102.17
2023-02-15T05:46:32.425Z,103.20
2023-02-15T05:49:34.195Z,119.53
2023-02-15T05:52:36.367Z,107.00
2023-02-15T05:55:41.256Z,115.57
2023-02-15T05:58:44.242Z,106.73
2023-02-15T06:01:46.006Z,110.37
2023-02-15T06:04:47.635Z,109.77
2023-02-15T06:07:49.265Z,115.20
2023-02-15T06:10:50.874Z,111.13
2023-02-15T06:13:52.557Z,134.63
2023-02-15T06:16:54.155Z,99.50
2023-02-15T06:19:55.865Z,88.93
2023-02-15T06:22:57.506Z,103.97
2023-02-15T06:25:59.144Z,113.93
2023-02-15T06:29:00.754Z,54.80
2023-02-15T06:32:02.494Z,61.80
2023-02-15T06:35:04.576Z,76.03
2023-02-15T06:38:06.195Z,68.17
2023-02-15T06:41:07.882Z,93.73
2023-02-15T06:44:09.530Z,51.90
2023-02-15T06:47:11.944Z,45.40
2023-02-15T06:50:13.578Z,48.30
2023-02-15T06:53:15.257Z,56.67
2023-02-15T06:56:19.842Z,56.73
2023-02-15T06:59:21.583Z,63.60
2023-02-15T07:02:23.307Z,43.57
2023-02-15T07:05:25.330Z,45.83
2023-02-15T07:08:27.296Z,47.60
2023-02-15T07:11:47.535Z,49.13
2023-02-15T07:14:49.184Z,83.30
2023-02-15T07:17:50.945Z,72.60
2023-02-15T07:20:52.630Z,79.93
2023-02-15T07:23:56.984Z,56.03
2023-02-15T07:26:58.842Z,67.00
2023-02-15T07:30:01.028Z,66.97
2023-02-15T07:33:21.226Z,46.10
2023-02-15T07:36:22.995Z,44.63
2023-02-15T07:39:24.642Z,54.17
2023-02-15T07:42:26.313Z,44.50
2023-02-15T07:45:28.114Z,39.93
2023-02-15T07:48:29.811Z,32.93
2023-02-15T07:51:31.462Z,40.30
2023-02-15T07:54:33.158Z,34.10
2023-02-15T07:57:34.832Z,41.10
2023-02-15T08:00:56.382Z,97.70
2023-02-15T08:04:01.370Z,56.33
2023-02-15T08:07:03.114Z,81.07
2023-02-15T08:10:05.052Z,47.30
2023-02-15T08:13:06.738Z,58.00
2023-02-15T08:16:08.349Z,41.03
2023-02-15T08:19:16.182Z,56.17
2023-02-15T08:22:17.781Z,37.37
2023-02-15T08:25:19.470Z,33.90
2023-02-15T08:28:21.199Z,40.23
2023-02-15T08:31:23.253Z,47.47
2023-02-15T08:34:25.428Z,33.70
2023-02-15T08:37:27.124Z,36.83
2023-02-15T08:40:28.753Z,40.27
2023-02-15T08:43:30.364Z,34.57
2023-02-15T08:46:33.696Z,36.33
2023-02-15T08:49:35.350Z,45.17
2023-02-15T08:52:37.057Z,61.77
2023-02-15T08:55:40.838Z,65.43
2023-02-15T08:58:42.482Z,25.80
2023-02-15T09:01:44.656Z,27.90
2023-02-15T09:04:46.444Z,29.07
2023-02-15T09:07:48.061Z,34.80
2023-02-15T09:10:49.632Z,25.93
2023-02-15T09:13:53.832Z,22.90
2023-02-15T09:16:56.856Z,26.53
2023-02-15T09:20:01.011Z,24.97
2023-02-15T09:23:02.697Z,19.47
2023-02-15T09:26:05.225Z,22.03
2023-02-15T09:29:06.884Z,23.50
2023-02-15T09:32:08.596Z,30.53
2023-02-15T09:35:10.198Z,22.77
2023-02-15T09:38:13.022Z,23.67
2023-02-15T09:41:33.416Z,30.30
2023-02-15T09:44:50.352Z,21.43
2023-02-15T09:48:10.439Z,20.63
2023-02-15T09:51:41.513Z,22.30
2023-02-15T09:54:49.176Z,25.13
2023-02-15T09:58:09.005Z,23.17
2023-02-15T10:01:20.483Z,22.10
2023-02-15T10:04:31.497Z,18.60
2023-02-15T10:07:45.162Z,22.73
2023-02-15T10:10:53.288Z,27.17
2023-02-15T10:14:12.022Z,20.40
2023-02-15T10:17:19.771Z,20.63
2023-02-15T10:20:40.226Z,22.43
2023-02-15T10:24:00.768Z,24.73
2023-02-15T10:27:21.437Z,23.03
2023-02-15T10:30:43.506Z,21.17
2023-02-15T10:33:45.328Z,21.70
2023-02-15T10:37:08.592Z,28.40
2023-02-15T10:40:20.462Z,26.83
2023-02-15T10:44:00.626Z,21.50
2023-02-15T10:47:18.060Z,31.20
2023-02-15T10:50:37.782Z,23.83
2023-02-15T10:53:58.951Z,30.10
2023-02-15T10:57:00.525Z,40.67
2023-02-15T11:00:02.329Z,26.93
2023-02-15T11:03:17.692Z,20.10
2023-02-15T11:06:20.931Z,27.10
2023-02-15T11:09:23.519Z,22.77
2023-02-15T11:12:25.976Z,20.10
2023-02-15T11:15:45.958Z,23.80
2023-02-15T11:18:59.765Z,24.80
2023-02-15T11:22:05.779Z,17.17
2023-02-15T11:25:17.257Z,21.87
2023-02-15T11:28:25.971Z,22.93
2023-02-15T11:31:30.825Z,27.20
2023-02-15T11:34:35.439Z,22.50
2023-02-15T11:37:39.827Z,23.60
2023-02-15T11:41:01.960Z,36.40
2023-02-15T11:44:09.588Z,24.87
2023-02-15T11:47:11.808Z,23.37
2023-02-15T11:50:19.275Z,21.33
2023-02-15T11:53:22.669Z,21.77
2023-02-15T11:56:25.180Z,22.90
2023-02-15T11:59:32.789Z,23.53
2023-02-15T12:02:35.314Z,17.93
2023-02-15T12:05:38.267Z,18.73
2023-02-15T12:08:43.548Z,18.17
2023-02-15T12:11:45.190Z,21.63
2023-02-15T12:14:56.967Z,17.23
2023-02-15T12:17:58.655Z,21.70
2023-02-15T12:21:06.360Z,21.57
2023-02-15T12:24:18.771Z,30.03
2023-02-15T12:27:26.460Z,37.67
2023-02-15T12:30:31.945Z,19.57
2023-02-15T12:33:41.948Z,21.77
2023-02-15T12:36:47.482Z,20.53
2023-02-15T12:40:02.300Z,20.87
2023-02-15T12:43:09.762Z,21.60
2023-02-15T12:46:15.454Z,23.30
2023-02-15T12:49:21.271Z,21.37
2023-02-15T12:52:22.964Z,19.37
2023-02-15T12:55:26.629Z,28.97
2023-02-15T12:58:31.101Z,21.17
2023-02-15T13:01:33.141Z,21.80
2023-02-15T13:04:34.821Z,20.63
2023-02-15T13:07:37.764Z,21.23
2023-02-15T13:10:53.229Z,19.40
2023-02-15T13:13:56.212Z,17.10
2023-02-15T13:16:59.550Z,17.53
2023-02-15T13:20:17.931Z,18.13
2023-02-15T13:23:22.610Z,21.90
2023-02-15T13:26:27.247Z,23.63
2023-02-15T13:29:29.711Z,19.80
2023-02-15T13:32:34.705Z,25.67
2023-02-15T13:35:43.935Z,22.73
2023-02-15T13:38:57.702Z,23.50
2023-02-15T13:42:14.579Z,20.93
2023-02-15T13:45:25.658Z,19.70
2023-02-15T13:48:34.221Z,18.30
2023-02-15T13:51:46.539Z,18.33
2023-02-15T13:54:48.158Z,28.20
2023-02-15T13:57:52.823Z,22.37
2023-02-15T14:00:54.590Z,23.83
2023-02-15T14:04:14.764Z,26.77
2023-02-15T14:07:36.083Z,25.03
2023-02-15T14:10:56.187Z,21.67
2023-02-15T14:14:06.869Z,23.47
2023-02-15T14:17:27.125Z,21.93
2023-02-15T14:20:47.538Z,24.83
2023-02-15T14:24:04.183Z,37.07
2023-02-15T14:27:12.228Z,22.97
2023-02-15T14:30:16.994Z,28.43
2023-02-15T14:33:21.688Z,27.37
2023-02-15T14:36:24.449Z,24.17
2023-02-15T14:39:44.691Z,29.43
2023-02-15T14:42:53.612Z,29.63
2023-02-15T14:46:09.874Z,28.47
2023-02-15T14:49:13.385Z,31.17
2023-02-15T14:52:14.969Z,27.30
2023-02-15T14:55:35.662Z,30.80
2023-02-15T14:58:57.568Z,31.57
2023-02-15T15:02:19.421Z,39.40
2023-02-15T15:05:25.176Z,37.50
2023-02-15T15:08:32.713Z,32.63
2023-02-15T15:11:43.964Z,29.20
2023-02-15T15:14:46.838Z,33.50
2023-02-15T15:17:56.241Z,25.77
2023-02-15T15:20:57.889Z,29.10
2023-02-15T15:23:59.829Z,34.63
2023-02-15T15:27:20.026Z,33.93
2023-02-15T15:30:21.871Z,41.30
2023-02-15T15:33:39.116Z,35.43
2023-02-15T15:36:49.838Z,48.73
2023-02-15T15:40:14.109Z,62.27
2023-02-15T15:43:34.026Z,52.20
2023-02-15T15:46:38.942Z,43.87
2023-02-15T15:49:41.245Z,49.50
2023-02-15T15:52:45.732Z,45.23
2023-02-15T15:55:48.598Z,64.13
2023-02-15T15:58:55.353Z,69.50
2023-02-15T16:01:57.109Z,533.83
2023-02-15T16:05:09.138Z,132.73
2023-02-15T16:08:10.728Z,83.53
2023-02-15T16:11:15.623Z,79.10
2023-02-15T16:14:20.998Z,127.47
2023-02-15T16:17:24.636Z,211.77
2023-02-15T16:20:26.363Z,218.53
2023-02-15T16:23:37.315Z,160.93
2023-02-15T16:26:48.573Z,138.37
2023-02-15T16:29:50.130Z,108.33
2023-02-15T16:33:24.110Z,99.40
2023-02-15T16:36:27.220Z,93.63
2023-02-15T16:39:28.777Z,80.97
2023-02-15T16:42:30.450Z,90.00
2023-02-15T16:45:37.931Z,105.07
2023-02-15T16:48:42.521Z,106.00
2023-02-15T16:51:46.067Z,104.17
2023-02-15T16:54:49.127Z,108.83
2023-02-15T16:57:51.410Z,140.03
2023-02-15T17:00:56.004Z,142.40
2023-02-15T17:04:14.096Z,145.93
2023-02-15T17:07:22.255Z,125.23
2023-02-15T17:10:31.481Z,115.10
2023-02-15T17:13:33.114Z,112.23
2023-02-15T17:16:36.385Z,90.47
2023-02-15T17:19:52.340Z,63.40
2023-02-15T17:22:54.114Z,68.20
2023-02-15T17:25:56.019Z,68.83
2023-02-15T17:29:16.595Z,61.30
2023-02-15T17:32:25.825Z,75.43
2023-02-15T17:35:31.864Z,94.17
2023-02-15T17:38:33.814Z,83.47
2023-02-15T17:41:38.063Z,97.43
2023-02-15T17:44:39.794Z,101.23
2023-02-15T17:47:41.862Z,100.20
2023-02-15T17:50:43.728Z,91.27
2023-02-15T17:54:03.988Z,64.87
2023-02-15T17:57:13.073Z,55.93
2023-02-15T18:00:33.602Z,50.70
2023-02-15T18:04:04.888Z,44.17
2023-02-15T18:07:27.220Z,65.10
2023-02-15T18:10:47.242Z,55.17
2023-02-15T18:13:49.001Z,45.47
2023-02-15T18:16:50.687Z,44.17
2023-02-15T18:19:54.160Z,57.33
2023-02-15T18:22:55.870Z,59.87
2023-02-15T18:25:57.493Z,44.23
2023-02-15T18:28:59.187Z,42.33
2023-02-15T18:32:01.283Z,47.90
2023-02-15T18:35:03.513Z,49.87
2023-02-15T18:38:05.213Z,66.27
2023-02-15T18:41:07.218Z,62.33
2023-02-15T18:44:12.280Z,62.57
2023-02-15T18:47:14.014Z,64.50
2023-02-15T18:50:16.643Z,64.20
2023-02-15T18:53:20.070Z,47.50
2023-02-15T18:56:22.554Z,52.70
2023-02-15T18:59:25.490Z,54.33
2023-02-15T19:02:28.021Z,43.70
2023-02-15T19:05:30.528Z,44.97
2023-02-15T19:08:32.162Z,43.20
2023-02-15T19:11:34.116Z,48.80
2023-02-15T19:14:35.726Z,52.53
2023-02-15T19:17:37.391Z,76.80
2023-02-15T19:20:40.704Z,77.70
2023-02-15T19:23:42.341Z,66.47
2023-02-15T19:26:45.999Z,75.60
2023-02-15T19:29:48.308Z,56.97
2023-02-15T19:32:50.079Z,68.40
2023-02-15T19:35:54.157Z,75.93
2023-02-15T19:38:56.079Z,53.90
2023-02-15T19:41:59.007Z,49.53
2023-02-15T19:45:00.889Z,51.20
2023-02-15T19:48:02.523Z,54.70
2023-02-15T19:51:04.551Z,55.07
2023-02-15T19:54:16.478Z,47.43
2023-02-15T19:57:18.102Z,48.37
2023-02-15T20:00:22.646Z,48.00
2023-02-15T20:03:24.465Z,46.40
2023-02-15T20:06:26.130Z,50.87
2023-02-15T20:09:32.792Z,56.67
2023-02-15T20:12:34.552Z,62.17
2023-02-15T20:15:36.541Z,52.13
2023-02-15T20:18:38.189Z,66.57
2023-02-15T20:21:40.921Z,66.20
2023-02-15T20:24:42.548Z,61.63
2023-02-15T20:27:44.223Z,50.73
2023-02-15T20:30:45.953Z,48.67
2023-02-15T20:33:48.092Z,44.00
2023-02-15T20:36:49.845Z,34.43
2023-02-15T20:39:51.901Z,43.30
2023-02-15T20:42:53.784Z,55.90
2023-02-15T20:45:55.407Z,44.70
2023-02-15T20:48:57.052Z,51.47
2023-02-15T20:51:58.800Z,56.20
2023-02-15T20:55:00.469Z,55.90
2023-02-15T20:58:02.099Z,56.73
2023-02-15T21:01:06.314Z,47.90
2023-02-15T21:04:09.456Z,37.37
2023-02-15T21:07:14.340Z,38.03
2023-02-15T21:10:23.748Z,40.40
2023-02-15T21:13:27.054Z,40.67
2023-02-15T21:16:28.641Z,38.73
2023-02-15T21:19:30.525Z,41.20
2023-02-15T21:22:32.209Z,31.80
2023-02-15T21:25:34.880Z,36.27
2023-02-15T21:28:36.531Z,38.37
2023-02-15T21:31:38.258Z,46.77
2023-02-15T21:34:40.796Z,44.57
2023-02-15T21:37:43.288Z,45.07
2023-02-15T21:40:44.904Z,41.60
2023-02-15T21:44:05.196Z,36.60
2023-02-15T21:47:25.500Z,37.63
2023-02-15T21:50:45.657Z,55.17
2023-02-15T21:53:47.525Z,56.00
2023-02-15T21:56:51.048Z,45.30
2023-02-15T21:59:52.719Z,56.23
2023-02-15T22:02:55.878Z,42.83
2023-02-15T22:05:57.613Z,31.40
2023-02-15T22:08:59.317Z,37.07
2023-02-15T22:12:00.905Z,39.80
2023-02-15T22:15:02.595Z,36.57
2023-02-15T22:18:04.903Z,41.47
2023-02-15T22:21:07.017Z,35.47
2023-02-15T22:24:08.944Z,37.07
2023-02-15T22:27:19.590Z,38.67
2023-02-15T22:30:32.753Z,34.23
2023-02-15T22:33:35.129Z,37.40
2023-02-15T22:36:36.807Z,38.17
2023-02-15T22:39:38.659Z,35.00
2023-02-15T22:42:40.263Z,38.47
2023-02-15T22:45:41.866Z,48.00
2023-02-15T22:48:44.672Z,51.63
2023-02-15T22:51:48.727Z,43.80
2023-02-15T22:54:50.317Z,41.20
2023-02-15T22:57:54.629Z,41.87
2023-02-15T23:00:58.081Z,45.00
2023-02-15T23:04:03.028Z,46.60
2023-02-15T23:07:10.210Z,43.50
2023-02-15T23:10:21.167Z,37.67
2023-02-15T23:13:29.236Z,37.97
2023-02-15T23:16:31.182Z,39.87
2023-02-15T23:19:32.779Z,44.20
2023-02-15T23:22:34.359Z,42.43
2023-02-15T23:25:36.047Z,45.67
2023-02-15T23:28:38.295Z,46.80
2023-02-15T23:31:42.094Z,45.60
2023-02-15T23:34:43.751Z,39.50
2023-02-15T23:37:45.370Z,38.93
2023-02-15T23:41:07.036Z,44.17
2023-02-15T23:44:09.177Z,48.83
2023-02-15T23:47:42.967Z,45.80
2023-02-15T23:50:44.587Z,41.10
2023-02-15T23:53:46.356Z,42.67
2023-02-15T23:56:55.147Z,40.33
2023-02-15T23:59:56.754Z,43.67
